sensor_id;sensor_type;location;lat;lon;timestamp;temperature;humidity
19340;HTU21D;9804;52.350;6.684;2022-07-25T00:00:15;24.09;-6.00
19340;HTU21D;9804;52.350;6.684;2022-07-25T00:02:40;23.75;-6.00
19340;HTU21D;9804;52.350;6.684;2022-07-25T00:05:06;23.66;-6.00
19340;HTU21D;9804;52.350;6.684;2022-07-25T00:07:31;23.51;-6.00
19340;HTU21D;9804;52.350;6.684;2022-07-25T00:09:57;23.58;-6.00
19340;HTU21D;9804;52.350;6.684;2022-07-25T00:12:22;23.49;-6.00
19340;HTU21D;9804;52.350;6.684;2022-07-25T00:14:48;23.42;-6.00
19340;HTU21D;9804;52.350;6.684;2022-07-25T00:17:14;23.34;-6.00
19340;HTU21D;9804;52.350;6.684;2022-07-25T00:19:39;23.43;-6.00
19340;HTU21D;9804;52.350;6.684;2022-07-25T00:22:05;23.51;-6.00
19340;HTU21D;9804;52.350;6.684;2022-07-25T00:24:30;23.50;-6.00
19340;HTU21D;9804;52.350;6.684;2022-07-25T00:26:56;23.39;-6.00
19340;HTU21D;9804;52.350;6.684;2022-07-25T00:29:21;23.23;-6.00
19340;HTU21D;9804;52.350;6.684;2022-07-25T00:31:47;23.22;-6.00
19340;HTU21D;9804;52.350;6.684;2022-07-25T00:34:12;23.20;-6.00
19340;HTU21D;9804;52.350;6.684;2022-07-25T00:36:37;23.12;-6.00
19340;HTU21D;9804;52.350;6.684;2022-07-25T00:39:03;23.01;-6.00
19340;HTU21D;9804;52.350;6.684;2022-07-25T00:41:29;22.95;-6.00
19340;HTU21D;9804;52.350;6.684;2022-07-25T00:43:54;23.02;-6.00
19340;HTU21D;9804;52.350;6.684;2022-07-25T00:46:20;22.96;-6.00
19340;HTU21D;9804;52.350;6.684;2022-07-25T00:48:45;22.93;-6.00
19340;HTU21D;9804;52.350;6.684;2022-07-25T00:51:11;22.86;-6.00
19340;HTU21D;9804;52.350;6.684;2022-07-25T00:53:37;22.82;-6.00
19340;HTU21D;9804;52.350;6.684;2022-07-25T00:56:03;22.76;-6.00
19340;HTU21D;9804;52.350;6.684;2022-07-25T00:58:29;22.76;-6.00
19340;HTU21D;9804;52.350;6.684;2022-07-25T01:00:55;22.73;-6.00
19340;HTU21D;9804;52.350;6.684;2022-07-25T01:03:20;22.73;-6.00
19340;HTU21D;9804;52.350;6.684;2022-07-25T01:05:46;22.79;-6.00
19340;HTU21D;9804;52.350;6.684;2022-07-25T01:08:11;22.77;-6.00
19340;HTU21D;9804;52.350;6.684;2022-07-25T01:10:37;22.66;-6.00
19340;HTU21D;9804;52.350;6.684;2022-07-25T01:13:03;22.58;-6.00
19340;HTU21D;9804;52.350;6.684;2022-07-25T01:15:29;22.55;-6.00
19340;HTU21D;9804;52.350;6.684;2022-07-25T01:17:54;22.54;-6.00
19340;HTU21D;9804;52.350;6.684;2022-07-25T01:20:21;22.58;-6.00
19340;HTU21D;9804;52.350;6.684;2022-07-25T01:22:47;22.52;-6.00
19340;HTU21D;9804;52.350;6.684;2022-07-25T01:25:13;22.52;-6.00
19340;HTU21D;9804;52.350;6.684;2022-07-25T01:27:40;22.58;-6.00
19340;HTU21D;9804;52.350;6.684;2022-07-25T01:30:08;22.60;-6.00
19340;HTU21D;9804;52.350;6.684;2022-07-25T01:32:34;22.50;-6.00
19340;HTU21D;9804;52.350;6.684;2022-07-25T01:35:00;22.41;-6.00
19340;HTU21D;9804;52.350;6.684;2022-07-25T01:37:26;22.34;-6.00
19340;HTU21D;9804;52.350;6.684;2022-07-25T01:39:51;22.28;-6.00
19340;HTU21D;9804;52.350;6.684;2022-07-25T01:42:16;22.38;-6.00
19340;HTU21D;9804;52.350;6.684;2022-07-25T01:44:42;22.28;-6.00
19340;HTU21D;9804;52.350;6.684;2022-07-25T01:47:07;22.32;-6.00
19340;HTU21D;9804;52.350;6.684;2022-07-25T01:49:32;22.29;-6.00
19340;HTU21D;9804;52.350;6.684;2022-07-25T01:51:59;22.12;-6.00
19340;HTU21D;9804;52.350;6.684;2022-07-25T01:54:24;22.18;-6.00
19340;HTU21D;9804;52.350;6.684;2022-07-25T01:56:50;22.09;-6.00
19340;HTU21D;9804;52.350;6.684;2022-07-25T01:59:15;22.05;-6.00
19340;HTU21D;9804;52.350;6.684;2022-07-25T02:01:41;22.02;-6.00
19340;HTU21D;9804;52.350;6.684;2022-07-25T02:04:06;21.99;-6.00
19340;HTU21D;9804;52.350;6.684;2022-07-25T02:06:32;22.07;-6.00
19340;HTU21D;9804;52.350;6.684;2022-07-25T02:08:59;22.13;-6.00
19340;HTU21D;9804;52.350;6.684;2022-07-25T02:11:24;22.03;-6.00
19340;HTU21D;9804;52.350;6.684;2022-07-25T02:13:50;21.93;-6.00
19340;HTU21D;9804;52.350;6.684;2022-07-25T02:16:15;21.92;-6.00
19340;HTU21D;9804;52.350;6.684;2022-07-25T02:18:42;21.87;-6.00
19340;HTU21D;9804;52.350;6.684;2022-07-25T02:21:07;21.85;-6.00
19340;HTU21D;9804;52.350;6.684;2022-07-25T02:23:35;21.85;-6.00
19340;HTU21D;9804;52.350;6.684;2022-07-25T02:26:00;21.84;-6.00
19340;HTU21D;9804;52.350;6.684;2022-07-25T02:28:25;21.79;-6.00
19340;HTU21D;9804;52.350;6.684;2022-07-25T02:30:51;21.87;-6.00
19340;HTU21D;9804;52.350;6.684;2022-07-25T02:33:16;21.89;-6.00
19340;HTU21D;9804;52.350;6.684;2022-07-25T02:35:42;21.95;-6.00
19340;HTU21D;9804;52.350;6.684;2022-07-25T02:38:07;21.98;-6.00
19340;HTU21D;9804;52.350;6.684;2022-07-25T02:40:32;22.13;-6.00
19340;HTU21D;9804;52.350;6.684;2022-07-25T02:42:58;22.13;-6.00
19340;HTU21D;9804;52.350;6.684;2022-07-25T02:45:23;22.26;-6.00
19340;HTU21D;9804;52.350;6.684;2022-07-25T02:47:49;22.28;-6.00
19340;HTU21D;9804;52.350;6.684;2022-07-25T02:50:14;22.20;-6.00
19340;HTU21D;9804;52.350;6.684;2022-07-25T02:52:40;22.17;-6.00
19340;HTU21D;9804;52.350;6.684;2022-07-25T02:55:06;22.18;-6.00
19340;HTU21D;9804;52.350;6.684;2022-07-25T02:57:31;22.02;-6.00
19340;HTU21D;9804;52.350;6.684;2022-07-25T02:59:56;22.03;-6.00
19340;HTU21D;9804;52.350;6.684;2022-07-25T03:02:22;21.89;-6.00
19340;HTU21D;9804;52.350;6.684;2022-07-25T03:04:47;21.90;-6.00
19340;HTU21D;9804;52.350;6.684;2022-07-25T03:07:12;21.94;-6.00
19340;HTU21D;9804;52.350;6.684;2022-07-25T03:09:38;22.04;-6.00
19340;HTU21D;9804;52.350;6.684;2022-07-25T03:12:03;22.06;-6.00
19340;HTU21D;9804;52.350;6.684;2022-07-25T03:14:29;22.19;-6.00
19340;HTU21D;9804;52.350;6.684;2022-07-25T03:16:54;22.31;-6.00
19340;HTU21D;9804;52.350;6.684;2022-07-25T03:19:20;22.32;-6.00
19340;HTU21D;9804;52.350;6.684;2022-07-25T03:21:45;22.18;-6.00
19340;HTU21D;9804;52.350;6.684;2022-07-25T03:24:11;22.19;-6.00
19340;HTU21D;9804;52.350;6.684;2022-07-25T03:26:36;22.27;-6.00
19340;HTU21D;9804;52.350;6.684;2022-07-25T03:29:01;22.39;-6.00
19340;HTU21D;9804;52.350;6.684;2022-07-25T03:31:27;22.56;-6.00
19340;HTU21D;9804;52.350;6.684;2022-07-25T03:33:52;22.58;-6.00
19340;HTU21D;9804;52.350;6.684;2022-07-25T03:36:18;22.62;-6.00
19340;HTU21D;9804;52.350;6.684;2022-07-25T03:38:43;22.68;-6.00
19340;HTU21D;9804;52.350;6.684;2022-07-25T03:41:09;22.84;-6.00
19340;HTU21D;9804;52.350;6.684;2022-07-25T03:43:34;22.91;-6.00
19340;HTU21D;9804;52.350;6.684;2022-07-25T03:45:59;22.76;-6.00
19340;HTU21D;9804;52.350;6.684;2022-07-25T03:48:25;22.84;-6.00
19340;HTU21D;9804;52.350;6.684;2022-07-25T03:50:50;22.97;-6.00
19340;HTU21D;9804;52.350;6.684;2022-07-25T03:53:15;22.98;-6.00
19340;HTU21D;9804;52.350;6.684;2022-07-25T03:55:41;22.90;-6.00
19340;HTU21D;9804;52.350;6.684;2022-07-25T03:58:06;23.00;-6.00
19340;HTU21D;9804;52.350;6.684;2022-07-25T04:00:31;23.11;-6.00
19340;HTU21D;9804;52.350;6.684;2022-07-25T04:02:57;23.01;-6.00
19340;HTU21D;9804;52.350;6.684;2022-07-25T04:05:23;23.02;-6.00
19340;HTU21D;9804;52.350;6.684;2022-07-25T04:07:48;23.11;-6.00
19340;HTU21D;9804;52.350;6.684;2022-07-25T04:10:13;23.01;-6.00
19340;HTU21D;9804;52.350;6.684;2022-07-25T04:12:39;23.23;-6.00
19340;HTU21D;9804;52.350;6.684;2022-07-25T04:15:04;23.27;-6.00
19340;HTU21D;9804;52.350;6.684;2022-07-25T04:17:30;23.36;-6.00
19340;HTU21D;9804;52.350;6.684;2022-07-25T04:19:55;23.44;-6.00
19340;HTU21D;9804;52.350;6.684;2022-07-25T04:22:21;23.49;-6.00
19340;HTU21D;9804;52.350;6.684;2022-07-25T04:24:46;23.55;-6.00
19340;HTU21D;9804;52.350;6.684;2022-07-25T04:27:12;23.68;-6.00
19340;HTU21D;9804;52.350;6.684;2022-07-25T04:29:37;23.83;-6.00
19340;HTU21D;9804;52.350;6.684;2022-07-25T04:32:03;24.05;-6.00
19340;HTU21D;9804;52.350;6.684;2022-07-25T04:34:29;24.28;-6.00
19340;HTU21D;9804;52.350;6.684;2022-07-25T04:36:54;24.24;-6.00
19340;HTU21D;9804;52.350;6.684;2022-07-25T04:39:19;24.40;-6.00
19340;HTU21D;9804;52.350;6.684;2022-07-25T04:41:45;24.42;-6.00
19340;HTU21D;9804;52.350;6.684;2022-07-25T04:44:10;24.26;-6.00
19340;HTU21D;9804;52.350;6.684;2022-07-25T04:46:35;24.45;-6.00
19340;HTU21D;9804;52.350;6.684;2022-07-25T04:49:01;24.49;-6.00
19340;HTU21D;9804;52.350;6.684;2022-07-25T04:51:26;24.63;-6.00
19340;HTU21D;9804;52.350;6.684;2022-07-25T04:53:51;24.58;-6.00
19340;HTU21D;9804;52.350;6.684;2022-07-25T04:56:17;24.69;-6.00
19340;HTU21D;9804;52.350;6.684;2022-07-25T04:58:42;24.59;-6.00
19340;HTU21D;9804;52.350;6.684;2022-07-25T05:01:08;24.78;-6.00
19340;HTU21D;9804;52.350;6.684;2022-07-25T05:03:33;24.99;-6.00
19340;HTU21D;9804;52.350;6.684;2022-07-25T05:05:59;25.08;-6.00
19340;HTU21D;9804;52.350;6.684;2022-07-25T05:08:24;25.01;-6.00
19340;HTU21D;9804;52.350;6.684;2022-07-25T05:10:49;25.15;-6.00
19340;HTU21D;9804;52.350;6.684;2022-07-25T05:13:15;25.09;-6.00
19340;HTU21D;9804;52.350;6.684;2022-07-25T05:15:40;25.12;-6.00
19340;HTU21D;9804;52.350;6.684;2022-07-25T05:18:05;25.13;-6.00
19340;HTU21D;9804;52.350;6.684;2022-07-25T05:20:31;25.15;-6.00
19340;HTU21D;9804;52.350;6.684;2022-07-25T05:22:56;25.31;-6.00
19340;HTU21D;9804;52.350;6.684;2022-07-25T05:25:22;25.52;-6.00
19340;HTU21D;9804;52.350;6.684;2022-07-25T05:27:47;25.51;-6.00
19340;HTU21D;9804;52.350;6.684;2022-07-25T05:30:13;25.75;-6.00
19340;HTU21D;9804;52.350;6.684;2022-07-25T05:32:40;25.84;-6.00
19340;HTU21D;9804;52.350;6.684;2022-07-25T05:35:06;25.99;-6.00
19340;HTU21D;9804;52.350;6.684;2022-07-25T05:37:33;26.08;-6.00
19340;HTU21D;9804;52.350;6.684;2022-07-25T05:39:58;26.11;-6.00
19340;HTU21D;9804;52.350;6.684;2022-07-25T05:42:24;26.23;-6.00
19340;HTU21D;9804;52.350;6.684;2022-07-25T05:44:49;26.30;-6.00
19340;HTU21D;9804;52.350;6.684;2022-07-25T05:47:14;26.13;-6.00
19340;HTU21D;9804;52.350;6.684;2022-07-25T05:49:40;26.10;-6.00
19340;HTU21D;9804;52.350;6.684;2022-07-25T05:52:05;25.92;-6.00
19340;HTU21D;9804;52.350;6.684;2022-07-25T05:54:31;26.06;-6.00
19340;HTU21D;9804;52.350;6.684;2022-07-25T05:56:56;26.02;-6.00
19340;HTU21D;9804;52.350;6.684;2022-07-25T05:59:22;25.98;-6.00
19340;HTU21D;9804;52.350;6.684;2022-07-25T06:01:47;25.95;-6.00
19340;HTU21D;9804;52.350;6.684;2022-07-25T06:04:12;26.03;-6.00
19340;HTU21D;9804;52.350;6.684;2022-07-25T06:06:38;25.87;-6.00
19340;HTU21D;9804;52.350;6.684;2022-07-25T06:09:03;26.18;-6.00
19340;HTU21D;9804;52.350;6.684;2022-07-25T06:11:29;26.16;-6.00
19340;HTU21D;9804;52.350;6.684;2022-07-25T06:13:55;26.27;-6.00
19340;HTU21D;9804;52.350;6.684;2022-07-25T06:16:21;26.30;-6.00
19340;HTU21D;9804;52.350;6.684;2022-07-25T06:18:46;26.23;-6.00
19340;HTU21D;9804;52.350;6.684;2022-07-25T06:21:11;26.23;-6.00
19340;HTU21D;9804;52.350;6.684;2022-07-25T06:23:37;26.09;-6.00
19340;HTU21D;9804;52.350;6.684;2022-07-25T06:26:02;26.33;-6.00
19340;HTU21D;9804;52.350;6.684;2022-07-25T06:28:28;26.30;-6.00
19340;HTU21D;9804;52.350;6.684;2022-07-25T06:30:53;26.31;-6.00
19340;HTU21D;9804;52.350;6.684;2022-07-25T06:33:19;26.62;-6.00
19340;HTU21D;9804;52.350;6.684;2022-07-25T06:35:44;26.56;-6.00
19340;HTU21D;9804;52.350;6.684;2022-07-25T06:38:09;26.63;-6.00
19340;HTU21D;9804;52.350;6.684;2022-07-25T06:40:35;26.72;-6.00
19340;HTU21D;9804;52.350;6.684;2022-07-25T06:43:00;26.62;-6.00
19340;HTU21D;9804;52.350;6.684;2022-07-25T06:45:26;26.62;-6.00
19340;HTU21D;9804;52.350;6.684;2022-07-25T06:47:54;26.64;-6.00
19340;HTU21D;9804;52.350;6.684;2022-07-25T06:50:19;26.86;-6.00
19340;HTU21D;9804;52.350;6.684;2022-07-25T06:52:45;26.87;-6.00
19340;HTU21D;9804;52.350;6.684;2022-07-25T06:55:13;26.95;-6.00
19340;HTU21D;9804;52.350;6.684;2022-07-25T06:57:39;26.99;-6.00
19340;HTU21D;9804;52.350;6.684;2022-07-25T07:00:07;27.13;-6.00
19340;HTU21D;9804;52.350;6.684;2022-07-25T07:02:34;27.35;-6.00
19340;HTU21D;9804;52.350;6.684;2022-07-25T07:05:00;27.09;-6.00
19340;HTU21D;9804;52.350;6.684;2022-07-25T07:07:26;27.22;-6.00
19340;HTU21D;9804;52.350;6.684;2022-07-25T07:09:51;27.30;-6.00
19340;HTU21D;9804;52.350;6.684;2022-07-25T07:12:16;27.36;-6.00
19340;HTU21D;9804;52.350;6.684;2022-07-25T07:14:42;27.50;-6.00
19340;HTU21D;9804;52.350;6.684;2022-07-25T07:17:09;27.72;-6.00
19340;HTU21D;9804;52.350;6.684;2022-07-25T07:19:34;27.67;-6.00
19340;HTU21D;9804;52.350;6.684;2022-07-25T07:21:59;27.96;-6.00
19340;HTU21D;9804;52.350;6.684;2022-07-25T07:24:25;28.11;-6.00
19340;HTU21D;9804;52.350;6.684;2022-07-25T07:26:51;27.55;-6.00
19340;HTU21D;9804;52.350;6.684;2022-07-25T07:29:17;27.72;-6.00
19340;HTU21D;9804;52.350;6.684;2022-07-25T07:31:43;28.18;-6.00
19340;HTU21D;9804;52.350;6.684;2022-07-25T07:34:08;28.48;-6.00
19340;HTU21D;9804;52.350;6.684;2022-07-25T07:36:33;28.19;-6.00
19340;HTU21D;9804;52.350;6.684;2022-07-25T07:38:59;27.98;-6.00
19340;HTU21D;9804;52.350;6.684;2022-07-25T07:41:24;28.16;-6.00
19340;HTU21D;9804;52.350;6.684;2022-07-25T07:43:50;28.00;-6.00
19340;HTU21D;9804;52.350;6.684;2022-07-25T07:46:15;28.29;-6.00
19340;HTU21D;9804;52.350;6.684;2022-07-25T07:48:41;28.29;-6.00
19340;HTU21D;9804;52.350;6.684;2022-07-25T07:51:06;28.54;-6.00
19340;HTU21D;9804;52.350;6.684;2022-07-25T07:53:31;28.45;-6.00
19340;HTU21D;9804;52.350;6.684;2022-07-25T07:56:15;28.47;-6.00
19340;HTU21D;9804;52.350;6.684;2022-07-25T07:58:42;28.44;-6.00
19340;HTU21D;9804;52.350;6.684;2022-07-25T08:01:08;28.21;-6.00
19340;HTU21D;9804;52.350;6.684;2022-07-25T08:03:33;28.42;-6.00
19340;HTU21D;9804;52.350;6.684;2022-07-25T08:05:59;28.65;-6.00
19340;HTU21D;9804;52.350;6.684;2022-07-25T08:08:24;28.73;-6.00
19340;HTU21D;9804;52.350;6.684;2022-07-25T08:10:50;28.50;-6.00
19340;HTU21D;9804;52.350;6.684;2022-07-25T08:13:25;28.41;-6.00
19340;HTU21D;9804;52.350;6.684;2022-07-25T08:15:52;28.53;-6.00
19340;HTU21D;9804;52.350;6.684;2022-07-25T08:18:19;28.59;-6.00
19340;HTU21D;9804;52.350;6.684;2022-07-25T08:20:45;28.69;-6.00
19340;HTU21D;9804;52.350;6.684;2022-07-25T08:23:11;28.97;-6.00
19340;HTU21D;9804;52.350;6.684;2022-07-25T08:25:36;28.62;-6.00
19340;HTU21D;9804;52.350;6.684;2022-07-25T08:28:02;28.82;-6.00
19340;HTU21D;9804;52.350;6.684;2022-07-25T08:30:28;29.32;-6.00
19340;HTU21D;9804;52.350;6.684;2022-07-25T08:32:54;29.47;-6.00
19340;HTU21D;9804;52.350;6.684;2022-07-25T08:35:25;29.72;-6.00
19340;HTU21D;9804;52.350;6.684;2022-07-25T08:37:51;29.50;-6.00
19340;HTU21D;9804;52.350;6.684;2022-07-25T08:40:18;29.73;-6.00
19340;HTU21D;9804;52.350;6.684;2022-07-25T08:42:44;29.75;-6.00
19340;HTU21D;9804;52.350;6.684;2022-07-25T08:45:11;29.42;-6.00
19340;HTU21D;9804;52.350;6.684;2022-07-25T08:47:40;29.16;-6.00
19340;HTU21D;9804;52.350;6.684;2022-07-25T08:50:12;28.63;-6.00
19340;HTU21D;9804;52.350;6.684;2022-07-25T08:52:38;28.85;-6.00
19340;HTU21D;9804;52.350;6.684;2022-07-25T08:55:09;28.93;-6.00
19340;HTU21D;9804;52.350;6.684;2022-07-25T08:57:36;29.27;-6.00
19340;HTU21D;9804;52.350;6.684;2022-07-25T09:00:06;28.64;-6.00
19340;HTU21D;9804;52.350;6.684;2022-07-25T09:02:31;28.63;-6.00
19340;HTU21D;9804;52.350;6.684;2022-07-25T09:04:57;28.24;-6.00
19340;HTU21D;9804;52.350;6.684;2022-07-25T09:07:35;28.80;-6.00
19340;HTU21D;9804;52.350;6.684;2022-07-25T09:10:20;28.75;-6.00
19340;HTU21D;9804;52.350;6.684;2022-07-25T09:13:07;28.56;-6.00
19340;HTU21D;9804;52.350;6.684;2022-07-25T09:16:00;28.34;-6.00
19340;HTU21D;9804;52.350;6.684;2022-07-25T09:18:26;28.65;-6.00
19340;HTU21D;9804;52.350;6.684;2022-07-25T09:20:57;28.87;-6.00
19340;HTU21D;9804;52.350;6.684;2022-07-25T09:23:37;28.53;-6.00
19340;HTU21D;9804;52.350;6.684;2022-07-25T09:26:13;28.84;-6.00
19340;HTU21D;9804;52.350;6.684;2022-07-25T09:28:44;28.75;-6.00
19340;HTU21D;9804;52.350;6.684;2022-07-25T09:31:09;28.68;-6.00
19340;HTU21D;9804;52.350;6.684;2022-07-25T09:33:44;28.52;-6.00
19340;HTU21D;9804;52.350;6.684;2022-07-25T09:36:10;28.93;-6.00
19340;HTU21D;9804;52.350;6.684;2022-07-25T09:38:36;29.06;-6.00
19340;HTU21D;9804;52.350;6.684;2022-07-25T09:41:02;29.06;-6.00
19340;HTU21D;9804;52.350;6.684;2022-07-25T09:43:39;29.63;-6.00
19340;HTU21D;9804;52.350;6.684;2022-07-25T09:46:05;29.74;-6.00
19340;HTU21D;9804;52.350;6.684;2022-07-25T09:48:31;29.71;-6.00
19340;HTU21D;9804;52.350;6.684;2022-07-25T09:50:57;29.68;-6.00
19340;HTU21D;9804;52.350;6.684;2022-07-25T09:53:23;29.24;-6.00
19340;HTU21D;9804;52.350;6.684;2022-07-25T09:55:48;29.76;-6.00
19340;HTU21D;9804;52.350;6.684;2022-07-25T09:58:14;30.85;-6.00
19340;HTU21D;9804;52.350;6.684;2022-07-25T10:00:40;31.20;-6.00
19340;HTU21D;9804;52.350;6.684;2022-07-25T10:03:28;31.92;-6.00
19340;HTU21D;9804;52.350;6.684;2022-07-25T10:08:40;30.38;-6.00
19340;HTU21D;9804;52.350;6.684;2022-07-25T10:11:24;30.52;-6.00
19340;HTU21D;9804;52.350;6.684;2022-07-25T10:13:51;30.52;-6.00
19340;HTU21D;9804;52.350;6.684;2022-07-25T10:16:18;30.63;-6.00
19340;HTU21D;9804;52.350;6.684;2022-07-25T10:18:55;30.38;-6.00
19340;HTU21D;9804;52.350;6.684;2022-07-25T10:21:22;30.46;-6.00
19340;HTU21D;9804;52.350;6.684;2022-07-25T10:24:17;29.53;-6.00
19340;HTU21D;9804;52.350;6.684;2022-07-25T10:26:50;29.96;-6.00
19340;HTU21D;9804;52.350;6.684;2022-07-25T10:29:16;29.88;-6.00
19340;HTU21D;9804;52.350;6.684;2022-07-25T10:31:43;29.26;-6.00
19340;HTU21D;9804;52.350;6.684;2022-07-25T10:34:11;29.58;-6.00
19340;HTU21D;9804;52.350;6.684;2022-07-25T10:36:45;30.24;-6.00
19340;HTU21D;9804;52.350;6.684;2022-07-25T10:39:16;30.16;-6.00
19340;HTU21D;9804;52.350;6.684;2022-07-25T10:41:49;30.26;-6.00
19340;HTU21D;9804;52.350;6.684;2022-07-25T10:44:15;29.95;-6.00
19340;HTU21D;9804;52.350;6.684;2022-07-25T10:46:41;30.17;-6.00
19340;HTU21D;9804;52.350;6.684;2022-07-25T10:49:19;29.94;-6.00
19340;HTU21D;9804;52.350;6.684;2022-07-25T10:51:57;30.18;-6.00
19340;HTU21D;9804;52.350;6.684;2022-07-25T10:54:22;29.82;-6.00
19340;HTU21D;9804;52.350;6.684;2022-07-25T10:56:55;30.00;-6.00
19340;HTU21D;9804;52.350;6.684;2022-07-25T10:59:40;30.64;-6.00
19340;HTU21D;9804;52.350;6.684;2022-07-25T11:02:08;30.39;-6.00
19340;HTU21D;9804;52.350;6.684;2022-07-25T11:04:35;30.51;-6.00
19340;HTU21D;9804;52.350;6.684;2022-07-25T11:07:09;30.35;-6.00
19340;HTU21D;9804;52.350;6.684;2022-07-25T11:09:35;30.61;-6.00
19340;HTU21D;9804;52.350;6.684;2022-07-25T11:12:00;30.24;-6.00
19340;HTU21D;9804;52.350;6.684;2022-07-25T11:14:35;30.87;-6.00
19340;HTU21D;9804;52.350;6.684;2022-07-25T11:17:21;31.30;-6.00
19340;HTU21D;9804;52.350;6.684;2022-07-25T11:22:23;30.75;-6.00
19340;HTU21D;9804;52.350;6.684;2022-07-25T11:24:48;30.42;-6.00
19340;HTU21D;9804;52.350;6.684;2022-07-25T11:27:30;29.83;-6.00
19340;HTU21D;9804;52.350;6.684;2022-07-25T11:32:47;29.63;-6.00
19340;HTU21D;9804;52.350;6.684;2022-07-25T11:35:20;30.18;-6.00
19340;HTU21D;9804;52.350;6.684;2022-07-25T11:37:45;30.32;-6.00
19340;HTU21D;9804;52.350;6.684;2022-07-25T11:40:14;30.07;-6.00
19340;HTU21D;9804;52.350;6.684;2022-07-25T11:42:49;30.16;-6.00
19340;HTU21D;9804;52.350;6.684;2022-07-25T11:45:37;29.95;-6.00
19340;HTU21D;9804;52.350;6.684;2022-07-25T11:48:12;30.12;-6.00
19340;HTU21D;9804;52.350;6.684;2022-07-25T11:50:39;30.34;-6.00
19340;HTU21D;9804;52.350;6.684;2022-07-25T11:53:13;30.17;-6.00
19340;HTU21D;9804;52.350;6.684;2022-07-25T11:55:40;30.24;-6.00
19340;HTU21D;9804;52.350;6.684;2022-07-25T11:58:06;30.52;-6.00
19340;HTU21D;9804;52.350;6.684;2022-07-25T12:00:41;29.63;-6.00
19340;HTU21D;9804;52.350;6.684;2022-07-25T12:03:08;30.03;-6.00
19340;HTU21D;9804;52.350;6.684;2022-07-25T12:05:34;29.16;-6.00
19340;HTU21D;9804;52.350;6.684;2022-07-25T12:08:08;29.21;-6.00
19340;HTU21D;9804;52.350;6.684;2022-07-25T12:10:35;29.27;-6.00
19340;HTU21D;9804;52.350;6.684;2022-07-25T12:13:01;29.12;-6.00
19340;HTU21D;9804;52.350;6.684;2022-07-25T12:15:35;28.84;-6.00
19340;HTU21D;9804;52.350;6.684;2022-07-25T12:18:00;28.93;-6.00
19340;HTU21D;9804;52.350;6.684;2022-07-25T12:20:31;28.97;-6.00
19340;HTU21D;9804;52.350;6.684;2022-07-25T12:23:00;29.48;-6.00
19340;HTU21D;9804;52.350;6.684;2022-07-25T12:25:26;29.86;-6.00
19340;HTU21D;9804;52.350;6.684;2022-07-25T12:27:52;29.42;-6.00
19340;HTU21D;9804;52.350;6.684;2022-07-25T12:30:18;29.51;-6.00
19340;HTU21D;9804;52.350;6.684;2022-07-25T12:32:44;29.17;-6.00
19340;HTU21D;9804;52.350;6.684;2022-07-25T12:35:11;29.09;-6.00
19340;HTU21D;9804;52.350;6.684;2022-07-25T12:37:37;28.93;-6.00
19340;HTU21D;9804;52.350;6.684;2022-07-25T12:40:04;28.84;-6.00
19340;HTU21D;9804;52.350;6.684;2022-07-25T12:42:30;28.75;-6.00
19340;HTU21D;9804;52.350;6.684;2022-07-25T12:44:55;28.89;-6.00
19340;HTU21D;9804;52.350;6.684;2022-07-25T12:47:22;28.83;-6.00
19340;HTU21D;9804;52.350;6.684;2022-07-25T12:49:47;28.75;-6.00
19340;HTU21D;9804;52.350;6.684;2022-07-25T12:52:13;28.48;-6.00
19340;HTU21D;9804;52.350;6.684;2022-07-25T12:54:38;28.57;-6.00
19340;HTU21D;9804;52.350;6.684;2022-07-25T12:57:04;28.75;-6.00
19340;HTU21D;9804;52.350;6.684;2022-07-25T12:59:29;28.62;-6.00
19340;HTU21D;9804;52.350;6.684;2022-07-25T13:01:54;29.01;-6.00
19340;HTU21D;9804;52.350;6.684;2022-07-25T13:04:20;28.75;-6.00
19340;HTU21D;9804;52.350;6.684;2022-07-25T13:06:45;28.82;-6.00
19340;HTU21D;9804;52.350;6.684;2022-07-25T13:09:11;29.31;-6.00
19340;HTU21D;9804;52.350;6.684;2022-07-25T13:11:36;28.73;-6.00
19340;HTU21D;9804;52.350;6.684;2022-07-25T13:14:01;28.98;-6.00
19340;HTU21D;9804;52.350;6.684;2022-07-25T13:16:27;29.02;-6.00
19340;HTU21D;9804;52.350;6.684;2022-07-25T13:18:52;28.86;-6.00
19340;HTU21D;9804;52.350;6.684;2022-07-25T13:21:18;28.65;-6.00
19340;HTU21D;9804;52.350;6.684;2022-07-25T13:23:45;28.80;-6.00
19340;HTU21D;9804;52.350;6.684;2022-07-25T13:26:10;29.06;-6.00
19340;HTU21D;9804;52.350;6.684;2022-07-25T13:28:35;28.76;-6.00
19340;HTU21D;9804;52.350;6.684;2022-07-25T13:31:01;28.62;-6.00
19340;HTU21D;9804;52.350;6.684;2022-07-25T13:33:27;28.80;-6.00
19340;HTU21D;9804;52.350;6.684;2022-07-25T13:35:52;29.00;-6.00
19340;HTU21D;9804;52.350;6.684;2022-07-25T13:38:18;29.07;-6.00
19340;HTU21D;9804;52.350;6.684;2022-07-25T13:40:43;29.26;-6.00
19340;HTU21D;9804;52.350;6.684;2022-07-25T13:43:11;29.54;-6.00
19340;HTU21D;9804;52.350;6.684;2022-07-25T13:45:36;29.88;-6.00
19340;HTU21D;9804;52.350;6.684;2022-07-25T13:48:03;29.47;-6.00
19340;HTU21D;9804;52.350;6.684;2022-07-25T13:50:29;28.41;-6.00
19340;HTU21D;9804;52.350;6.684;2022-07-25T13:52:54;28.41;-6.00
19340;HTU21D;9804;52.350;6.684;2022-07-25T13:55:22;28.65;-6.00
19340;HTU21D;9804;52.350;6.684;2022-07-25T13:57:47;28.32;-6.00
19340;HTU21D;9804;52.350;6.684;2022-07-25T14:00:13;27.60;-6.00
19340;HTU21D;9804;52.350;6.684;2022-07-25T14:02:38;27.71;-6.00
19340;HTU21D;9804;52.350;6.684;2022-07-25T14:05:04;26.83;-6.00
19340;HTU21D;9804;52.350;6.684;2022-07-25T14:07:30;26.53;-6.00
19340;HTU21D;9804;52.350;6.684;2022-07-25T14:09:55;26.72;-6.00
19340;HTU21D;9804;52.350;6.684;2022-07-25T14:12:21;26.53;-6.00
19340;HTU21D;9804;52.350;6.684;2022-07-25T14:14:46;26.30;-6.00
19340;HTU21D;9804;52.350;6.684;2022-07-25T14:17:12;26.67;-6.00
19340;HTU21D;9804;52.350;6.684;2022-07-25T14:19:37;26.35;-6.00
19340;HTU21D;9804;52.350;6.684;2022-07-25T14:22:02;26.27;-6.00
19340;HTU21D;9804;52.350;6.684;2022-07-25T14:24:28;26.67;-6.00
19340;HTU21D;9804;52.350;6.684;2022-07-25T14:26:53;26.87;-6.00
19340;HTU21D;9804;52.350;6.684;2022-07-25T14:29:19;26.69;-6.00
19340;HTU21D;9804;52.350;6.684;2022-07-25T14:31:45;26.95;-6.00
19340;HTU21D;9804;52.350;6.684;2022-07-25T14:34:10;27.41;-6.00
19340;HTU21D;9804;52.350;6.684;2022-07-25T14:36:36;27.52;-6.00
19340;HTU21D;9804;52.350;6.684;2022-07-25T14:39:02;27.65;-6.00
19340;HTU21D;9804;52.350;6.684;2022-07-25T14:41:28;28.55;-6.00
19340;HTU21D;9804;52.350;6.684;2022-07-25T14:43:53;27.91;-6.00
19340;HTU21D;9804;52.350;6.684;2022-07-25T14:46:19;28.32;-6.00
19340;HTU21D;9804;52.350;6.684;2022-07-25T14:48:44;28.46;-6.00
19340;HTU21D;9804;52.350;6.684;2022-07-25T14:51:09;28.53;-6.00
19340;HTU21D;9804;52.350;6.684;2022-07-25T14:53:35;28.49;-6.00
19340;HTU21D;9804;52.350;6.684;2022-07-25T14:56:02;28.39;-6.00
19340;HTU21D;9804;52.350;6.684;2022-07-25T14:58:28;28.52;-6.00
19340;HTU21D;9804;52.350;6.684;2022-07-25T15:00:53;28.70;-6.00
19340;HTU21D;9804;52.350;6.684;2022-07-25T15:03:18;28.83;-6.00
19340;HTU21D;9804;52.350;6.684;2022-07-25T15:05:44;28.59;-6.00
19340;HTU21D;9804;52.350;6.684;2022-07-25T15:08:09;28.98;-6.00
19340;HTU21D;9804;52.350;6.684;2022-07-25T15:10:36;28.19;-6.00
19340;HTU21D;9804;52.350;6.684;2022-07-25T15:13:02;28.77;-6.00
19340;HTU21D;9804;52.350;6.684;2022-07-25T15:15:27;28.80;-6.00
19340;HTU21D;9804;52.350;6.684;2022-07-25T15:17:53;28.97;-6.00
19340;HTU21D;9804;52.350;6.684;2022-07-25T15:20:19;28.65;-6.00
19340;HTU21D;9804;52.350;6.684;2022-07-25T15:22:45;28.55;-6.00
19340;HTU21D;9804;52.350;6.684;2022-07-25T15:25:10;28.24;-6.00
19340;HTU21D;9804;52.350;6.684;2022-07-25T15:27:36;28.99;-6.00
19340;HTU21D;9804;52.350;6.684;2022-07-25T15:30:02;28.57;-6.00
19340;HTU21D;9804;52.350;6.684;2022-07-25T15:32:27;29.27;-6.00
19340;HTU21D;9804;52.350;6.684;2022-07-25T15:34:53;29.92;-6.00